createdAt,value
2018-12-06T00:00:24.674Z,101398.80
2018-12-06T00:02:54.367Z,101400.58
2018-12-06T00:05:24.832Z,101404.92
2018-12-06T00:08:12.228Z,101398.50
2018-12-06T00:13:43.268Z,101395.84
2018-12-06T00:16:12.737Z,101397.20
2018-12-06T00:18:52.251Z,101395.89
2018-12-06T00:21:21.797Z,101394.16
2018-12-06T00:23:51.161Z,101391.12
2018-12-06T00:29:34.289Z,101391.59
2018-12-06T00:32:03.715Z,101382.91
2018-12-06T00:34:33.037Z,101382.47
2018-12-06T00:37:02.399Z,101385.08
2018-12-06T00:39:32.622Z,101390.31
2018-12-06T00:42:01.983Z,101384.27
2018-12-06T00:44:41.249Z,101381.23
2018-12-06T00:47:10.669Z,101369.94
2018-12-06T00:49:40.102Z,101363.89
2018-12-06T00:52:09.646Z,101359.12
2018-12-06T00:54:39.152Z,101355.20
2018-12-06T00:57:08.476Z,101350.89
2018-12-06T00:59:57.268Z,101347.00
2018-12-06T01:02:26.880Z,101351.78
2018-12-06T01:04:56.245Z,101345.30
2018-12-06T01:07:25.578Z,101343.61
2018-12-06T01:18:32.356Z,101328.06
2018-12-06T01:21:01.689Z,101327.19
2018-12-06T01:23:31.017Z,101319.80
2018-12-06T01:26:10.265Z,101324.58
2018-12-06T01:28:39.592Z,101317.14
2018-12-06T01:31:09.303Z,101327.67
2018-12-06T01:33:38.665Z,101320.28
2018-12-06T01:39:26.046Z,101321.20
2018-12-06T01:41:55.376Z,101329.46
2018-12-06T01:44:24.820Z,101332.55
2018-12-06T01:46:54.851Z,101340.81
2018-12-06T01:49:24.221Z,101340.87
2018-12-06T01:51:53.632Z,101342.17
2018-12-06T01:54:23.125Z,101339.17
2018-12-06T01:56:52.668Z,101342.26
2018-12-06T01:59:22.216Z,101336.17
2018-12-06T02:04:38.209Z,101334.53
2018-12-06T02:07:17.515Z,101325.41
2018-12-06T02:09:46.836Z,101324.58
2018-12-06T02:12:16.203Z,101325.92
2018-12-06T02:15:04.928Z,101332.02
2018-12-06T02:17:34.963Z,101332.05
2018-12-06T02:20:05.635Z,101331.63
2018-12-06T02:22:35.421Z,101331.72
2018-12-06T02:25:05.224Z,101322.15
2018-12-06T02:27:34.697Z,101309.55
2018-12-06T02:30:04.889Z,101283.87
2018-12-06T02:35:25.757Z,101292.27
2018-12-06T02:37:55.308Z,101289.19
2018-12-06T02:40:24.636Z,101291.41
2018-12-06T02:42:54.290Z,101289.27
2018-12-06T02:45:23.689Z,101288.40
2018-12-06T02:51:15.172Z,101315.84
2018-12-06T02:53:44.998Z,101313.72
2018-12-06T02:56:14.437Z,101311.59
2018-12-06T02:59:03.525Z,101305.50
2018-12-06T03:01:32.961Z,101315.11
2018-12-06T03:04:02.576Z,101297.71
2018-12-06T03:06:42.030Z,101293.44
2018-12-06T03:09:11.559Z,101282.16
2018-12-06T03:14:28.513Z,101277.46
2018-12-06T03:16:57.927Z,101277.03
2018-12-06T03:19:29.147Z,101274.45
2018-12-06T03:21:58.721Z,101284.51
2018-12-06T03:24:29.308Z,101276.72
2018-12-06T03:30:08.775Z,101262.87
2018-12-06T03:32:38.215Z,101268.97
2018-12-06T03:35:07.883Z,101273.36
2018-12-06T03:41:05.897Z,101274.75
2018-12-06T03:43:35.334Z,101273.91
2018-12-06T03:46:06.129Z,101269.12
2018-12-06T03:48:45.671Z,101272.69
2018-12-06T03:51:15.000Z,101277.48
2018-12-06T03:54:03.727Z,101284.48
2018-12-06T03:56:33.089Z,101285.35
2018-12-06T04:01:48.760Z,101284.63
2018-12-06T04:04:18.143Z,101291.16
2018-12-06T04:09:53.712Z,101300.30
2018-12-06T04:12:23.240Z,101301.22
2018-12-06T04:15:02.672Z,101299.04
2018-12-06T04:17:32.035Z,101300.34
2018-12-06T04:20:01.371Z,101313.02
2018-12-06T04:22:30.739Z,101313.45
2018-12-06T04:25:00.097Z,101303.91
2018-12-06T04:27:29.432Z,101299.16
2018-12-06T04:29:59.772Z,101307.86
2018-12-06T04:32:29.088Z,101308.30
2018-12-06T04:35:08.318Z,101309.64
2018-12-06T04:37:47.606Z,101308.34
2018-12-06T04:40:17.105Z,101306.20
2018-12-06T04:42:56.449Z,101313.61
2018-12-06T04:48:22.175Z,101301.05
2018-12-06T04:50:51.875Z,101290.59
2018-12-06T04:53:22.429Z,101293.68
2018-12-06T04:55:52.900Z,101283.23
2018-12-06T04:58:22.513Z,101284.58
2018-12-06T05:08:13.897Z,101275.06
2018-12-06T05:13:28.707Z,101279.12
2018-12-06T05:15:58.052Z,101283.05
2018-12-06T05:18:27.400Z,101283.48
2018-12-06T05:20:58.303Z,101274.37
2018-12-06T05:26:46.247Z,101257.81
2018-12-06T05:29:16.787Z,101258.28
2018-12-06T05:31:46.132Z,101253.96
2018-12-06T05:34:15.698Z,101249.63
2018-12-06T05:36:48.933Z,101244.41
2018-12-06T05:39:18.300Z,101256.64
2018-12-06T05:41:47.765Z,101257.95
2018-12-06T05:44:17.120Z,101244.91
2018-12-06T05:46:46.488Z,101244.94
2018-12-06T05:52:12.473Z,101274.23
2018-12-06T05:54:51.809Z,101278.59
2018-12-06T05:57:21.231Z,101286.07
2018-12-06T05:59:50.642Z,101288.72
2018-12-06T06:02:20.746Z,101295.33
2018-12-06T06:04:50.075Z,101301.02
2018-12-06T06:07:19.432Z,101308.47
2018-12-06T06:09:48.756Z,101317.22
2018-12-06T06:12:19.733Z,101332.95
2018-12-06T06:15:08.528Z,101336.90
2018-12-06T06:17:37.872Z,101330.33
2018-12-06T06:20:08.085Z,101337.34
2018-12-06T06:22:37.442Z,101333.84
2018-12-06T06:25:07.011Z,101337.77
2018-12-06T06:27:36.372Z,101334.75
2018-12-06T06:30:06.983Z,101338.27
2018-12-06T06:32:46.229Z,101336.09
2018-12-06T06:38:33.640Z,101344.41
2018-12-06T06:41:02.960Z,101344.01
2018-12-06T06:43:32.312Z,101346.25
2018-12-06T06:54:05.536Z,101351.61
2018-12-06T06:56:35.083Z,101350.77
2018-12-06T06:59:04.466Z,101346.41
2018-12-06T07:01:33.812Z,101359.59
2018-12-06T07:04:05.217Z,101362.23
2018-12-06T07:06:34.820Z,101356.56
2018-12-06T07:09:07.245Z,101359.22
2018-12-06T07:11:46.992Z,101368.84
2018-12-06T07:14:16.442Z,101375.42
2018-12-06T07:17:05.179Z,101385.02
2018-12-06T07:19:34.491Z,101392.93
2018-12-06T07:22:03.848Z,101390.75
2018-12-06T07:24:33.175Z,101392.98
2018-12-06T07:30:30.919Z,101381.27
2018-12-06T07:33:00.253Z,101390.46
2018-12-06T07:35:29.582Z,101395.76
2018-12-06T07:37:58.944Z,101397.56
2018-12-06T07:40:28.332Z,101384.47
2018-12-06T07:49:33.586Z,101380.72
2018-12-06T07:55:00.785Z,101395.67
2018-12-06T07:57:30.347Z,101404.02
2018-12-06T07:59:59.780Z,101404.48
2018-12-06T08:02:29.251Z,101391.00
2018-12-06T08:04:58.645Z,101393.64
2018-12-06T08:10:40.819Z,101409.41
2018-12-06T08:13:29.629Z,101391.97
2018-12-06T08:16:00.110Z,101398.58
2018-12-06T08:18:29.477Z,101397.73
2018-12-06T08:20:58.848Z,101396.44
2018-12-06T08:23:28.223Z,101400.39
2018-12-06T08:25:57.584Z,101401.30
2018-12-06T08:28:26.912Z,101408.75
2018-12-06T08:30:56.225Z,101405.71
2018-12-06T08:33:25.574Z,101404.02
2018-12-06T08:35:55.009Z,101412.34
2018-12-06T08:38:25.377Z,101408.00
2018-12-06T08:40:54.718Z,101408.02
2018-12-06T08:43:24.096Z,101402.36
2018-12-06T08:45:53.442Z,101403.70
2018-12-06T08:48:22.933Z,101405.00
2018-12-06T08:50:52.243Z,101408.95
2018-12-06T08:53:21.710Z,101409.41
2018-12-06T08:58:17.375Z,101392.42
2018-12-06T09:00:46.733Z,101387.61
2018-12-06T09:03:16.150Z,101399.44
2018-12-06T09:05:45.591Z,101390.69
2018-12-06T09:08:15.174Z,101389.83
2018-12-06T09:10:51.299Z,101401.24
2018-12-06T09:13:15.985Z,101400.39
2018-12-06T09:15:45.745Z,101407.42
2018-12-06T09:18:15.137Z,101397.83
2018-12-06T09:20:44.498Z,101397.00
2018-12-06T09:23:13.840Z,101384.34
2018-12-06T09:25:43.277Z,101384.34
2018-12-06T09:28:12.621Z,101385.27
2018-12-06T09:30:42.006Z,101381.77
2018-12-06T09:33:11.380Z,101382.25
2018-12-06T09:35:40.822Z,101382.72
2018-12-06T09:38:10.148Z,101397.17
2018-12-06T09:40:39.509Z,101403.31
2018-12-06T09:43:08.987Z,101403.77
2018-12-06T09:45:38.518Z,101408.60
2018-12-06T09:48:07.964Z,101419.09
2018-12-06T09:50:37.351Z,101418.69
2018-12-06T09:53:06.936Z,101421.34
2018-12-06T09:55:36.313Z,101413.47
2018-12-06T09:58:06.162Z,101415.23
2018-12-06T10:00:35.589Z,101419.20
2018-12-06T10:03:06.253Z,101426.22
2018-12-06T10:05:35.603Z,101423.59
2018-12-06T10:08:06.183Z,101413.54
2018-12-06T10:10:35.533Z,101416.61
2018-12-06T10:13:06.108Z,101421.08
2018-12-06T10:15:35.440Z,101434.66
2018-12-06T10:18:04.857Z,101435.09
2018-12-06T10:20:34.178Z,101430.28
2018-12-06T10:23:03.507Z,101420.25
2018-12-06T10:25:32.840Z,101436.90
2018-12-06T10:28:02.177Z,101435.16
2018-12-06T10:30:31.506Z,101430.36
2018-12-06T10:33:00.944Z,101444.81
2018-12-06T10:35:30.314Z,101431.69
2018-12-06T10:37:59.728Z,101447.88
2018-12-06T10:40:29.094Z,101454.89
2018-12-06T10:42:58.425Z,101450.06
2018-12-06T10:45:27.759Z,101438.26
2018-12-06T10:47:57.226Z,101444.84
2018-12-06T10:50:26.660Z,101449.64
2018-12-06T10:52:55.988Z,101438.70
2018-12-06T10:55:25.357Z,101443.08
2018-12-06T10:57:54.692Z,101446.59
2018-12-06T11:00:29.863Z,101435.66
2018-12-06T11:03:04.296Z,101435.20
2018-12-06T11:05:33.628Z,101426.89
2018-12-06T11:08:02.985Z,101427.34
2018-12-06T11:10:32.396Z,101430.03
2018-12-06T11:13:01.809Z,101433.53
2018-12-06T11:15:31.161Z,101444.50
2018-12-06T11:18:00.516Z,101444.10
2018-12-06T11:20:29.872Z,101433.59
2018-12-06T11:22:59.182Z,101417.83
2018-12-06T11:25:28.501Z,101426.64
2018-12-06T11:27:57.839Z,101420.50
2018-12-06T11:30:27.211Z,101424.00
2018-12-06T11:32:56.548Z,101422.70
2018-12-06T11:35:25.900Z,101418.77
2018-12-06T11:37:55.244Z,101414.39
2018-12-06T11:40:24.656Z,101415.27
2018-12-06T11:42:54.004Z,101417.02
2018-12-06T11:45:23.383Z,101426.67
2018-12-06T11:47:52.728Z,101420.11
2018-12-06T11:50:22.173Z,101419.68
2018-12-06T11:52:51.489Z,101424.08
2018-12-06T11:58:00.744Z,101413.61
2018-12-06T12:00:30.344Z,101413.65
2018-12-06T12:02:59.670Z,101413.21
2018-12-06T12:05:29.046Z,101398.74
2018-12-06T12:07:58.367Z,101418.05
2018-12-06T12:10:27.821Z,101427.70
2018-12-06T12:12:57.171Z,101441.70
2018-12-06T12:15:26.564Z,101437.78
2018-12-06T12:17:55.923Z,101441.28
2018-12-06T12:20:25.362Z,101441.27
2018-12-06T12:22:54.811Z,101444.77
2018-12-06T12:25:24.163Z,101436.45
2018-12-06T12:27:53.528Z,101436.86
2018-12-06T12:30:22.908Z,101436.00
2018-12-06T12:32:52.366Z,101431.58
2018-12-06T12:35:21.773Z,101435.94
2018-12-06T12:37:51.102Z,101432.45
2018-12-06T12:40:20.488Z,101449.09
2018-12-06T12:42:49.829Z,101442.50
2018-12-06T12:45:19.309Z,101444.69
2018-12-06T12:47:48.660Z,101443.37
2018-12-06T12:50:17.999Z,101434.58
2018-12-06T12:52:47.340Z,101423.66
2018-12-06T12:55:16.815Z,101418.38
2018-12-06T12:57:46.179Z,101413.55
2018-12-06T13:00:15.704Z,101414.45
2018-12-06T13:02:45.045Z,101419.70
2018-12-06T13:05:14.468Z,101413.58
2018-12-06T13:07:43.789Z,101415.31
2018-12-06T13:10:13.283Z,101413.56
2018-12-06T13:12:42.616Z,101410.50
2018-12-06T13:15:12.109Z,101380.65
2018-12-06T13:17:41.496Z,101405.22
2018-12-06T13:20:11.065Z,101404.77
2018-12-06T13:22:40.433Z,101399.51
2018-12-06T13:25:09.779Z,101410.02
2018-12-06T13:27:39.204Z,101410.43
2018-12-06T13:30:08.764Z,101412.19
2018-12-06T13:32:38.210Z,101406.95
2018-12-06T13:35:07.747Z,101407.38
2018-12-06T13:37:37.076Z,101404.77
2018-12-06T13:40:13.241Z,101409.59
2018-12-06T13:42:42.736Z,101406.08
2018-12-06T13:45:12.225Z,101409.16
2018-12-06T13:47:41.613Z,101406.11
2018-12-06T13:50:11.177Z,101401.70
2018-12-06T13:52:40.548Z,101393.81
2018-12-06T13:55:10.142Z,101407.85
2018-12-06T13:57:39.540Z,101403.91
2018-12-06T14:00:09.013Z,101406.98
2018-12-06T14:02:38.337Z,101414.84
2018-12-06T14:05:07.889Z,101417.48
2018-12-06T14:07:37.258Z,101416.16
2018-12-06T14:10:06.813Z,101418.80
2018-12-06T14:12:36.259Z,101417.06
2018-12-06T14:15:06.488Z,101404.80
2018-12-06T14:17:35.834Z,101407.42
2018-12-06T14:20:09.109Z,101406.11
2018-12-06T14:22:38.461Z,101410.91
2018-12-06T14:27:52.708Z,101415.72
2018-12-06T14:30:22.142Z,101410.91
2018-12-06T14:32:51.500Z,101412.70
2018-12-06T14:35:21.927Z,101417.94
2018-12-06T14:37:51.288Z,101416.16
2018-12-06T14:40:20.700Z,101408.28
2018-12-06T14:42:50.140Z,101404.77
2018-12-06T14:45:19.522Z,101396.84
2018-12-06T14:47:48.930Z,101411.77
2018-12-06T14:50:18.274Z,101404.73
2018-12-06T14:52:47.578Z,101410.88
2018-12-06T14:55:16.905Z,101409.98
2018-12-06T14:57:46.229Z,101408.67
2018-12-06T15:00:15.796Z,101402.55
2018-12-06T15:02:45.187Z,101405.62
2018-12-06T15:05:14.614Z,101396.42
2018-12-06T15:07:44.029Z,101396.41
2018-12-06T15:10:13.500Z,101393.33
2018-12-06T15:12:42.909Z,101379.28
2018-12-06T15:15:12.417Z,101384.09
2018-12-06T15:17:41.733Z,101372.72
2018-12-06T15:20:11.284Z,101372.28
2018-12-06T15:22:40.637Z,101363.52
2018-12-06T15:25:10.076Z,101370.09
2018-12-06T15:27:39.800Z,101368.78
2018-12-06T15:30:11.002Z,101374.03
2018-12-06T15:32:40.337Z,101372.70
2018-12-06T15:35:10.114Z,101368.33
2018-12-06T15:37:39.587Z,101374.00
2018-12-06T15:40:09.416Z,101391.52
2018-12-06T15:42:38.883Z,101394.14
2018-12-06T15:45:10.040Z,101391.94
2018-12-06T15:47:39.529Z,101399.39
2018-12-06T15:52:49.224Z,101402.43
2018-12-06T15:55:18.789Z,101395.87
2018-12-06T15:57:48.244Z,101391.48
2018-12-06T16:00:17.703Z,101391.47
2018-12-06T16:02:47.227Z,101398.91
2018-12-06T16:05:16.670Z,101394.06
2018-12-06T16:07:46.022Z,101392.30
2018-12-06T16:10:15.417Z,101391.86
2018-12-06T16:12:44.832Z,101388.36
2018-12-06T16:15:14.552Z,101388.83
2018-12-06T16:17:43.897Z,101381.36
2018-12-06T16:22:54.605Z,101365.15
2018-12-06T16:25:24.161Z,101370.41
2018-12-06T16:27:53.522Z,101363.85
2018-12-06T16:30:23.020Z,101358.14
2018-12-06T16:32:52.740Z,101360.34
2018-12-06T16:35:22.554Z,101355.52
2018-12-06T16:37:58.333Z,101353.34
2018-12-06T16:40:27.816Z,101355.09
2018-12-06T16:42:57.153Z,101357.28
2018-12-06T16:45:26.680Z,101362.97
2018-12-06T16:47:56.094Z,101373.47
2018-12-06T16:53:06.008Z,101378.30
2018-12-06T16:55:35.338Z,101376.55
2018-12-06T16:58:05.006Z,101367.79
2018-12-06T17:00:34.733Z,101367.34
2018-12-06T17:03:04.382Z,101368.20
2018-12-06T17:05:34.228Z,101365.59
2018-12-06T17:08:04.684Z,101370.84
2018-12-06T17:10:34.780Z,101362.54
2018-12-06T17:13:05.311Z,101369.11
2018-12-06T17:15:35.090Z,101355.55
2018-12-06T17:18:04.897Z,101366.05
2018-12-06T17:20:34.763Z,101356.84
2018-12-06T17:23:09.209Z,101362.11
2018-12-06T17:25:38.989Z,101352.88
2018-12-06T17:28:08.924Z,101358.56
2018-12-06T17:30:46.121Z,101359.41
2018-12-06T17:33:15.952Z,101359.38
2018-12-06T17:35:46.784Z,101348.36
2018-12-06T17:38:16.710Z,101347.11
2018-12-06T17:40:46.542Z,101345.34
2018-12-06T17:43:16.154Z,101343.11
2018-12-06T17:45:45.766Z,101343.98
2018-12-06T17:48:15.130Z,101347.47
2018-12-06T17:53:25.061Z,101341.34
2018-12-06T17:55:56.011Z,101333.91
2018-12-06T17:58:25.460Z,101328.20
2018-12-06T18:00:55.122Z,101326.48
2018-12-06T18:03:24.596Z,101324.27
2018-12-06T18:05:54.320Z,101326.91
2018-12-06T18:08:23.856Z,101326.04
2018-12-06T18:10:53.316Z,101325.66
2018-12-06T18:13:22.805Z,101327.42
2018-12-06T18:15:52.926Z,101323.91
2018-12-06T18:18:22.496Z,101332.70
2018-12-06T18:20:51.942Z,101337.08
2018-12-06T18:26:05.652Z,101327.47
2018-12-06T18:28:35.006Z,101315.66
2018-12-06T18:31:05.987Z,101306.91
2018-12-06T18:33:35.333Z,101300.33
2018-12-06T18:36:05.951Z,101293.76
2018-12-06T18:38:35.344Z,101298.17
2018-12-06T18:41:06.051Z,101271.90
2018-12-06T18:43:35.506Z,101289.43
2018-12-06T18:46:06.146Z,101291.19
2018-12-06T18:48:35.516Z,101288.56
2018-12-06T18:56:16.936Z,101292.95
2018-12-06T18:58:46.328Z,101287.31
2018-12-06T19:01:15.825Z,101294.75
2018-12-06T19:03:45.209Z,101301.34
2018-12-06T19:06:14.550Z,101291.27
2018-12-06T19:08:44.028Z,101297.81
2018-12-06T19:11:13.362Z,101281.20
2018-12-06T19:13:42.777Z,101282.97
2018-12-06T19:16:12.125Z,101290.42
2018-12-06T19:18:41.923Z,101267.66
2018-12-06T19:21:11.272Z,101268.50
2018-12-06T19:23:40.741Z,101282.55
2018-12-06T19:26:10.095Z,101272.47
2018-12-06T19:28:39.439Z,101279.05
2018-12-06T19:31:08.816Z,101273.35
2018-12-06T19:33:39.685Z,101273.34
2018-12-06T19:38:49.658Z,101267.68
2018-12-06T19:41:19.607Z,101284.33
2018-12-06T19:43:49.140Z,101285.63
2018-12-06T19:46:18.596Z,101278.17
2018-12-06T19:48:48.034Z,101283.45
2018-12-06T19:51:17.423Z,101278.20
2018-12-06T19:53:46.877Z,101280.40
2018-12-06T19:56:16.582Z,101278.65
2018-12-06T19:58:45.923Z,101273.81
2018-12-06T20:01:15.360Z,101258.46
2018-12-06T20:03:44.678Z,101247.10
2018-12-06T20:06:14.131Z,101244.03
2018-12-06T20:08:43.483Z,101239.19
2018-12-06T20:11:13.168Z,101229.13
2018-12-06T20:13:42.520Z,101221.23
2018-12-06T20:16:11.990Z,101230.01
2018-12-06T20:18:41.462Z,101243.59
2018-12-06T20:21:10.951Z,101251.03
2018-12-06T20:23:40.337Z,101249.27
2018-12-06T20:26:09.745Z,101251.04
2018-12-06T20:28:39.089Z,101251.45
2018-12-06T20:31:08.531Z,101247.51
2018-12-06T20:33:38.046Z,101237.44
2018-12-06T20:36:07.814Z,101245.34
2018-12-06T20:38:37.515Z,101241.84
2018-12-06T20:41:07.223Z,101240.50
2018-12-06T20:43:37.431Z,101242.25
2018-12-06T20:46:07.754Z,101246.63
2018-12-06T20:48:37.366Z,101244.88
2018-12-06T20:51:07.003Z,101232.18
2018-12-06T20:53:36.485Z,101230.42
2018-12-06T20:56:06.981Z,101229.54
2018-12-06T20:58:37.533Z,101222.55
2018-12-06T21:01:14.818Z,101219.46
2018-12-06T21:03:44.346Z,101215.98
2018-12-06T21:06:14.026Z,101213.80
2018-12-06T21:08:43.829Z,101220.78
2018-12-06T21:11:13.637Z,101217.72
2018-12-06T21:13:43.373Z,101224.30
2018-12-06T21:16:14.611Z,101215.53
2018-12-06T21:18:45.442Z,101212.91
2018-12-06T21:21:15.237Z,101222.09
2018-12-06T21:23:45.274Z,101217.72
2018-12-06T21:26:15.055Z,101207.20
2018-12-06T21:28:45.665Z,101203.25
2018-12-06T21:31:16.500Z,101214.21
2018-12-06T21:33:46.227Z,101203.69
2018-12-06T21:36:16.595Z,101219.03
2018-12-06T21:38:46.378Z,101211.16
2018-12-06T21:41:16.175Z,101208.52
2018-12-06T21:43:45.836Z,101212.45
2018-12-06T21:46:18.612Z,101221.22
2018-12-06T21:48:48.180Z,101208.07
2018-12-06T21:51:17.814Z,101206.77
2018-12-06T21:53:50.798Z,101205.88
2018-12-06T21:56:20.388Z,101204.55
2018-12-06T21:58:49.763Z,101208.51
2018-12-06T22:01:19.169Z,101201.05
2018-12-06T22:03:48.485Z,101193.16
2018-12-06T22:06:17.820Z,101201.50
2018-12-06T22:08:47.233Z,101196.22
2018-12-06T22:11:18.525Z,101201.48
2018-12-06T22:16:28.336Z,101202.37
2018-12-06T22:18:57.672Z,101204.56
2018-12-06T22:21:27.009Z,101195.77
2018-12-06T22:23:56.358Z,101196.22
2018-12-06T22:26:25.689Z,101200.62
2018-12-06T22:28:55.040Z,101200.16
2018-12-06T22:31:24.381Z,101198.86
2018-12-06T22:33:53.787Z,101194.90
2018-12-06T22:36:23.984Z,101197.09
2018-12-06T22:38:53.342Z,101203.22
2018-12-06T22:41:22.736Z,101204.09
2018-12-06T22:46:32.979Z,101192.27
2018-12-06T22:49:02.483Z,101187.05
2018-12-06T22:51:31.810Z,101187.91
2018-12-06T22:54:01.159Z,101189.20
2018-12-06T22:56:30.524Z,101185.28
2018-12-06T22:58:59.913Z,101153.72
2018-12-06T23:01:34.693Z,101190.11
2018-12-06T23:04:04.221Z,101187.45
2018-12-06T23:06:34.201Z,101183.06
2018-12-06T23:09:05.352Z,101184.83
2018-12-06T23:11:34.802Z,101181.77
2018-12-06T23:14:04.670Z,101188.36
2018-12-06T23:16:34.189Z,101188.80
2018-12-06T23:21:43.933Z,101173.91
2018-12-06T23:24:13.321Z,101178.71
2018-12-06T23:26:42.714Z,101175.22
2018-12-06T23:29:12.080Z,101165.56
2018-12-06T23:31:41.439Z,101164.27
2018-12-06T23:34:11.142Z,101151.14
2018-12-06T23:36:40.465Z,101160.31
2018-12-06T23:39:09.898Z,101171.27
2018-12-06T23:44:19.752Z,101161.64
2018-12-06T23:46:49.127Z,101156.83
2018-12-06T23:49:18.445Z,101163.41
2018-12-06T23:51:47.860Z,101164.70
2018-12-06T23:54:17.201Z,101150.70
2018-12-06T23:56:46.639Z,101141.95
2018-12-06T23:59:15.960Z,101151.56
